createdAt,value
2023-03-27T00:01:30.658Z,0.90
2023-03-27T00:03:59.126Z,1.20
2023-03-27T00:06:27.509Z,1.15
2023-03-27T00:08:55.800Z,1.00
2023-03-27T00:11:25.959Z,1.58
2023-03-27T00:13:54.847Z,1.27
2023-03-27T00:16:27.765Z,1.08
2023-03-27T00:18:56.547Z,1.60
2023-03-27T00:21:25.998Z,1.35
2023-03-27T00:23:54.575Z,1.10
2023-03-27T00:26:24.574Z,1.00
2023-03-27T00:28:52.965Z,1.35
2023-03-27T00:31:21.502Z,1.25
2023-03-27T00:33:49.840Z,1.17
2023-03-27T00:36:18.108Z,1.20
2023-03-27T00:38:46.865Z,1.30
2023-03-27T00:41:15.293Z,1.52
2023-03-27T00:43:45.403Z,1.65
2023-03-27T00:46:35.044Z,1.40
2023-03-27T00:49:07.476Z,1.70
2023-03-27T00:51:38.293Z,1.27
2023-03-27T00:54:07.674Z,1.67
2023-03-27T00:56:38.747Z,1.13
2023-03-27T00:59:16.743Z,1.23
2023-03-27T01:01:46.155Z,1.15
2023-03-27T01:04:14.883Z,1.02
2023-03-27T01:06:44.643Z,1.10
2023-03-27T01:09:20.607Z,1.35
2023-03-27T01:12:10.264Z,1.15
2023-03-27T01:14:51.763Z,1.30
2023-03-27T01:17:39.441Z,1.52
2023-03-27T01:20:53.475Z,1.20
2023-03-27T01:24:12.818Z,1.40
2023-03-27T01:27:04.472Z,1.10
2023-03-27T01:29:46.942Z,1.20
2023-03-27T01:32:58.492Z,1.40
2023-03-27T01:35:51.683Z,1.15
2023-03-27T01:39:07.470Z,1.50
2023-03-27T01:41:44.029Z,1.08
2023-03-27T01:44:18.207Z,1.50
2023-03-27T01:46:52.319Z,1.52
2023-03-27T01:49:26.355Z,1.33
2023-03-27T01:51:59.633Z,1.10
2023-03-27T01:54:32.946Z,1.48
2023-03-27T01:57:08.467Z,1.40
2023-03-27T01:59:44.615Z,1.63
2023-03-27T02:02:18.783Z,1.50
2023-03-27T02:04:53.878Z,1.20
2023-03-27T02:07:31.391Z,1.60
2023-03-27T02:10:05.573Z,1.63
2023-03-27T02:12:39.807Z,1.20
2023-03-27T02:15:23.970Z,1.50
2023-03-27T02:18:05.142Z,1.10
2023-03-27T02:20:34.912Z,1.23
2023-03-27T02:23:03.414Z,1.45
2023-03-27T02:25:34.261Z,1.50
2023-03-27T02:28:29.237Z,1.25
2023-03-27T02:31:32.720Z,1.45
2023-03-27T02:34:19.579Z,1.48
2023-03-27T02:36:57.678Z,1.23
2023-03-27T02:39:33.756Z,1.33
2023-03-27T02:42:10.529Z,1.63
2023-03-27T02:44:46.461Z,2.08
2023-03-27T02:47:22.715Z,1.45
2023-03-27T02:49:53.937Z,1.38
2023-03-27T02:52:29.053Z,1.90
2023-03-27T02:55:06.107Z,1.42
2023-03-27T02:57:39.962Z,1.80
2023-03-27T03:00:25.522Z,1.52
2023-03-27T03:03:02.144Z,1.05
2023-03-27T03:05:31.354Z,1.67
2023-03-27T03:08:00.106Z,1.00
2023-03-27T03:10:29.207Z,1.10
2023-03-27T03:12:57.480Z,1.13
2023-03-27T03:15:27.314Z,0.90
2023-03-27T03:17:56.031Z,1.13
2023-03-27T03:20:24.361Z,0.93
2023-03-27T03:22:53.096Z,1.42
2023-03-27T03:25:21.373Z,1.42
2023-03-27T03:27:49.687Z,1.30
2023-03-27T03:30:18.435Z,1.27
2023-03-27T03:32:48.134Z,1.70
2023-03-27T03:35:17.610Z,1.33
2023-03-27T03:37:51.157Z,1.30
2023-03-27T03:40:20.800Z,1.05
2023-03-27T03:42:51.021Z,1.27
2023-03-27T03:45:20.550Z,1.50
2023-03-27T03:47:50.656Z,1.08
2023-03-27T03:50:19.159Z,1.10
2023-03-27T03:52:47.902Z,0.98
2023-03-27T03:55:16.922Z,0.93
2023-03-27T03:57:48.451Z,1.00
2023-03-27T04:00:18.760Z,1.08
2023-03-27T04:02:52.040Z,1.63
2023-03-27T04:05:20.912Z,1.13
2023-03-27T04:07:49.866Z,0.90
2023-03-27T04:10:18.784Z,0.90
2023-03-27T04:12:50.875Z,0.60
2023-03-27T04:15:19.559Z,0.80
2023-03-27T04:17:49.029Z,0.63
2023-03-27T04:20:19.316Z,0.80
2023-03-27T04:22:53.837Z,0.85
2023-03-27T04:25:25.290Z,0.70
2023-03-27T04:27:53.760Z,1.13
2023-03-27T04:30:24.752Z,1.27
2023-03-27T04:32:54.841Z,0.80
2023-03-27T04:35:25.234Z,1.92
2023-03-27T04:37:53.908Z,0.95
2023-03-27T04:40:22.220Z,1.33
2023-03-27T04:42:50.596Z,1.30
2023-03-27T04:45:22.560Z,1.45
2023-03-27T04:47:51.144Z,1.50
2023-03-27T04:50:19.657Z,1.50
2023-03-27T04:52:50.657Z,1.13
2023-03-27T04:55:19.620Z,1.65
2023-03-27T04:57:49.043Z,1.60
2023-03-27T05:00:19.522Z,1.52
2023-03-27T05:02:50.139Z,1.25
2023-03-27T05:05:19.430Z,1.15
2023-03-27T05:07:50.718Z,1.60
2023-03-27T05:10:21.782Z,1.15
2023-03-27T05:12:52.918Z,1.40
2023-03-27T05:15:22.172Z,1.55
2023-03-27T05:17:54.417Z,1.83
2023-03-27T05:20:23.313Z,2.10
2023-03-27T05:22:54.634Z,1.45
2023-03-27T05:25:23.434Z,1.75
2023-03-27T05:27:53.070Z,1.65
2023-03-27T05:30:23.462Z,1.60
2023-03-27T05:32:53.641Z,1.70
2023-03-27T05:35:25.161Z,2.22
2023-03-27T05:37:56.299Z,1.90
2023-03-27T05:40:26.913Z,1.67
2023-03-27T05:42:58.129Z,1.55
2023-03-27T05:45:26.704Z,2.08
2023-03-27T05:47:57.559Z,1.67
2023-03-27T05:50:29.471Z,1.75
2023-03-27T05:53:01.131Z,1.73
2023-03-27T05:55:30.311Z,1.88
2023-03-27T05:58:03.082Z,1.48
2023-03-27T06:00:34.237Z,1.77
2023-03-27T06:03:04.793Z,1.70
2023-03-27T06:05:33.977Z,1.77
2023-03-27T06:08:04.589Z,2.00
2023-03-27T06:10:34.221Z,2.67
2023-03-27T06:13:05.098Z,2.63
2023-03-27T06:15:34.107Z,3.08
2023-03-27T06:18:03.048Z,2.65
2023-03-27T06:20:31.833Z,2.72
2023-03-27T06:23:01.622Z,2.13
2023-03-27T06:25:33.432Z,2.17
2023-03-27T06:28:04.534Z,2.35
2023-03-27T06:30:32.776Z,2.15
2023-03-27T06:33:03.012Z,2.22
2023-03-27T06:35:33.822Z,2.97
2023-03-27T06:38:03.160Z,2.88
2023-03-27T06:40:35.418Z,2.80
2023-03-27T06:43:06.244Z,1.95
2023-03-27T06:45:38.102Z,2.53
2023-03-27T06:48:15.454Z,2.10
2023-03-27T06:50:51.357Z,2.25
2023-03-27T06:53:27.373Z,2.55
2023-03-27T06:55:59.702Z,2.83
2023-03-27T06:58:28.517Z,2.42
2023-03-27T07:00:57.050Z,2.70
2023-03-27T07:03:25.858Z,1.77
2023-03-27T07:05:54.461Z,2.35
2023-03-27T07:08:24.842Z,1.85
2023-03-27T07:13:27.488Z,1.52
2023-03-27T07:15:56.232Z,1.75
2023-03-27T07:18:24.620Z,2.17
2023-03-27T07:20:53.227Z,1.50
2023-03-27T07:23:21.518Z,2.22
2023-03-27T07:25:50.405Z,2.10
2023-03-27T07:28:19.477Z,2.28
2023-03-27T07:30:49.367Z,1.40
2023-03-27T07:33:17.905Z,1.73
2023-03-27T07:35:48.278Z,1.60
2023-03-27T07:38:18.369Z,1.73
2023-03-27T07:40:47.050Z,1.60
2023-03-27T07:43:15.734Z,1.42
2023-03-27T07:45:44.054Z,1.98
2023-03-27T07:48:16.328Z,1.00
2023-03-27T07:50:46.315Z,0.68
2023-03-27T07:53:32.847Z,0.80
2023-03-27T07:56:03.652Z,0.88
2023-03-27T07:58:32.108Z,0.82
2023-03-27T08:01:02.215Z,0.93
2023-03-27T08:03:32.776Z,0.68
2023-03-27T08:06:02.157Z,0.80
2023-03-27T08:08:30.895Z,1.10
2023-03-27T08:11:01.040Z,1.30
2023-03-27T08:13:30.339Z,1.02
2023-03-27T08:16:10.573Z,1.20
2023-03-27T08:18:41.186Z,0.93
2023-03-27T08:21:10.575Z,1.00
2023-03-27T08:23:40.575Z,1.00
2023-03-27T08:26:09.257Z,1.33
2023-03-27T08:28:38.873Z,2.25
2023-03-27T08:31:12.436Z,1.33
2023-03-27T08:33:43.299Z,1.30
2023-03-27T08:36:14.319Z,1.42
2023-03-27T08:38:43.289Z,1.50
2023-03-27T08:41:30.842Z,1.50
2023-03-27T08:44:03.553Z,1.17
2023-03-27T08:46:38.688Z,1.17
2023-03-27T08:49:16.871Z,1.02
2023-03-27T08:51:50.624Z,1.27
2023-03-27T08:54:21.567Z,1.30
2023-03-27T08:56:50.499Z,1.05
2023-03-27T08:59:23.312Z,1.05
2023-03-27T09:01:59.844Z,0.88
2023-03-27T09:04:40.582Z,0.90
2023-03-27T09:07:12.724Z,0.98
2023-03-27T09:09:53.821Z,0.98
2023-03-27T09:12:36.184Z,0.77
2023-03-27T09:15:13.749Z,1.10
2023-03-27T09:17:48.180Z,1.02
2023-03-27T09:20:22.449Z,1.27
2023-03-27T09:22:56.115Z,1.23
2023-03-27T09:25:30.124Z,1.08
2023-03-27T09:27:59.739Z,1.33
2023-03-27T09:30:31.628Z,1.17
2023-03-27T09:33:05.045Z,1.17
2023-03-27T09:35:38.891Z,1.02
2023-03-27T09:38:28.228Z,1.38
2023-03-27T09:41:01.770Z,1.38
2023-03-27T09:43:42.902Z,1.20
2023-03-27T09:46:14.043Z,1.10
2023-03-27T09:48:50.500Z,1.13
2023-03-27T09:51:43.067Z,1.02
2023-03-27T09:54:14.282Z,1.10
2023-03-27T09:56:47.564Z,1.08
2023-03-27T09:59:27.903Z,1.08
2023-03-27T10:01:58.891Z,1.10
2023-03-27T10:04:29.291Z,0.93
2023-03-27T10:07:05.554Z,1.40
2023-03-27T10:09:36.275Z,1.10
2023-03-27T10:12:12.107Z,1.20
2023-03-27T10:14:44.123Z,1.08
2023-03-27T10:17:23.946Z,1.00
2023-03-27T10:19:56.309Z,1.80
2023-03-27T10:22:32.698Z,1.10
2023-03-27T10:25:04.889Z,1.45
2023-03-27T10:27:40.606Z,1.33
2023-03-27T10:30:31.334Z,1.25
2023-03-27T10:32:59.914Z,1.20
2023-03-27T10:35:36.486Z,1.55
2023-03-27T10:38:14.177Z,1.52
2023-03-27T10:40:45.717Z,0.90
2023-03-27T10:43:18.261Z,1.00
2023-03-27T10:45:50.989Z,0.70
2023-03-27T10:48:40.899Z,1.20
2023-03-27T10:51:45.515Z,0.80
2023-03-27T10:54:29.473Z,1.20
2023-03-27T10:57:03.630Z,0.90
2023-03-27T10:59:41.936Z,1.08
2023-03-27T11:02:20.773Z,1.02
2023-03-27T11:04:56.156Z,0.70
2023-03-27T11:07:33.780Z,0.80
2023-03-27T11:10:14.635Z,1.00
2023-03-27T11:12:49.930Z,0.88
2023-03-27T11:15:24.323Z,1.50
2023-03-27T11:17:58.795Z,1.00
2023-03-27T11:20:33.191Z,0.90
2023-03-27T11:23:07.634Z,0.90
2023-03-27T11:25:43.638Z,0.70
2023-03-27T11:28:22.841Z,0.70
2023-03-27T11:30:56.954Z,0.80
2023-03-27T11:33:42.176Z,0.93
2023-03-27T11:36:30.811Z,1.08
2023-03-27T11:39:15.433Z,0.98
2023-03-27T11:41:50.599Z,1.13
2023-03-27T11:44:19.059Z,0.82
2023-03-27T11:47:11.915Z,1.02
2023-03-27T11:50:00.057Z,0.82
2023-03-27T11:52:42.826Z,0.90
2023-03-27T11:55:26.410Z,1.20
2023-03-27T11:58:15.885Z,1.40
2023-03-27T12:00:55.186Z,0.90
2023-03-27T12:04:09.535Z,1.10
2023-03-27T12:06:48.878Z,1.02
2023-03-27T12:09:41.605Z,0.70
2023-03-27T12:12:34.128Z,0.68
2023-03-27T12:15:24.125Z,0.90
2023-03-27T12:18:03.048Z,1.38
2023-03-27T12:20:58.671Z,0.98
2023-03-27T12:23:58.516Z,0.98
2023-03-27T12:26:54.004Z,1.08
2023-03-27T12:29:43.663Z,0.93
2023-03-27T12:32:42.491Z,1.27
2023-03-27T12:35:13.627Z,1.13
2023-03-27T12:37:45.563Z,1.05
2023-03-27T12:40:30.709Z,0.95
2023-03-27T12:43:26.667Z,0.80
2023-03-27T12:46:16.162Z,1.20
2023-03-27T12:48:53.298Z,1.10
2023-03-27T12:51:37.570Z,0.93
2023-03-27T12:54:25.519Z,1.00
2023-03-27T12:57:06.026Z,1.08
2023-03-27T12:59:38.983Z,1.25
2023-03-27T13:02:43.382Z,1.45
2023-03-27T13:05:46.773Z,1.30
2023-03-27T13:08:38.835Z,1.52
2023-03-27T13:11:21.530Z,1.35
2023-03-27T13:14:23.939Z,1.50
2023-03-27T13:17:12.181Z,0.90
2023-03-27T13:19:54.935Z,1.00
2023-03-27T13:22:51.919Z,1.23
2023-03-27T13:25:46.540Z,1.52
2023-03-27T13:28:31.320Z,1.30
2023-03-27T13:31:01.917Z,1.23
2023-03-27T13:33:45.390Z,1.48
2023-03-27T13:36:19.467Z,1.20
2023-03-27T13:39:24.144Z,1.25
2023-03-27T13:42:11.243Z,1.30
2023-03-27T13:44:59.461Z,1.38
2023-03-27T13:48:10.507Z,1.40
2023-03-27T13:51:23.711Z,1.65
2023-03-27T13:54:43.835Z,1.35
2023-03-27T13:57:50.642Z,1.20
2023-03-27T14:00:50.790Z,1.48
2023-03-27T14:03:56.814Z,1.65
2023-03-27T14:07:16.561Z,1.40
2023-03-27T14:10:11.400Z,1.65
2023-03-27T14:12:59.459Z,1.20
2023-03-27T14:15:50.892Z,1.00
2023-03-27T14:19:37.699Z,1.40
2023-03-27T14:22:16.396Z,0.98
2023-03-27T14:24:49.056Z,1.58
2023-03-27T14:27:22.783Z,1.70
2023-03-27T14:30:08.827Z,1.30
2023-03-27T14:32:37.631Z,1.38
2023-03-27T14:35:07.593Z,1.65
2023-03-27T14:37:39.122Z,1.50
2023-03-27T14:40:23.177Z,1.60
2023-03-27T14:42:53.918Z,1.20
2023-03-27T14:45:27.597Z,1.65
2023-03-27T14:48:00.814Z,1.88
2023-03-27T14:50:31.365Z,1.73
2023-03-27T14:53:00.828Z,1.73
2023-03-27T14:55:32.455Z,1.35
2023-03-27T14:58:11.512Z,1.05
2023-03-27T15:00:42.330Z,1.40
2023-03-27T15:03:19.044Z,1.42
2023-03-27T15:06:00.776Z,1.38
2023-03-27T15:08:33.745Z,1.38
2023-03-27T15:11:03.777Z,1.48
2023-03-27T15:13:37.439Z,1.88
2023-03-27T15:16:09.052Z,1.80
2023-03-27T15:18:44.934Z,1.65
2023-03-27T15:21:20.476Z,1.25
2023-03-27T15:24:00.969Z,1.63
2023-03-27T15:26:33.003Z,1.83
2023-03-27T15:29:09.021Z,1.55
2023-03-27T15:31:39.101Z,1.35
2023-03-27T15:34:14.281Z,1.33
2023-03-27T15:36:45.342Z,1.20
2023-03-27T15:39:22.532Z,1.02
2023-03-27T15:42:05.053Z,1.15
2023-03-27T15:44:35.559Z,1.23
2023-03-27T15:47:06.819Z,0.98
2023-03-27T15:49:41.986Z,0.90
2023-03-27T15:52:31.550Z,1.10
2023-03-27T15:55:04.066Z,1.40
2023-03-27T15:57:32.537Z,1.23
2023-03-27T16:00:10.672Z,1.20
2023-03-27T16:02:39.573Z,1.65
2023-03-27T16:05:08.807Z,1.35
2023-03-27T16:07:46.616Z,1.25
2023-03-27T16:10:29.336Z,1.40
2023-03-27T16:13:02.591Z,0.95
2023-03-27T16:15:37.605Z,1.25
2023-03-27T16:18:19.144Z,1.30
2023-03-27T16:20:47.988Z,1.80
2023-03-27T16:23:16.402Z,1.13
2023-03-27T16:25:44.846Z,1.30
2023-03-27T16:28:17.631Z,1.30
2023-03-27T16:30:48.392Z,1.35
2023-03-27T16:33:19.050Z,1.38
2023-03-27T16:35:48.045Z,1.80
2023-03-27T16:38:17.296Z,1.20
2023-03-27T16:40:46.494Z,1.23
2023-03-27T16:43:14.984Z,1.15
2023-03-27T16:45:44.813Z,1.40
2023-03-27T16:48:14.902Z,1.30
2023-03-27T16:50:43.495Z,1.80
2023-03-27T16:53:11.844Z,1.90
2023-03-27T16:55:40.858Z,1.25
2023-03-27T16:58:09.643Z,1.50
2023-03-27T17:00:38.719Z,1.42
2023-03-27T17:03:07.620Z,1.15
2023-03-27T17:05:37.451Z,1.23
2023-03-27T17:08:07.251Z,1.48
2023-03-27T17:10:36.319Z,1.60
2023-03-27T17:13:04.803Z,1.83
2023-03-27T17:15:37.887Z,1.50
2023-03-27T17:18:07.206Z,1.25
2023-03-27T17:20:37.205Z,1.60
2023-03-27T17:23:06.319Z,1.73
2023-03-27T17:25:34.772Z,1.38
2023-03-27T17:28:03.064Z,1.25
2023-03-27T17:30:40.885Z,1.30
2023-03-27T17:33:12.150Z,1.42
2023-03-27T17:35:42.557Z,1.23
2023-03-27T17:38:11.560Z,1.40
2023-03-27T17:40:41.893Z,0.98
2023-03-27T17:43:10.648Z,1.33
2023-03-27T17:45:42.325Z,1.38
2023-03-27T17:48:11.950Z,1.17
2023-03-27T17:50:41.728Z,1.38
2023-03-27T17:53:10.551Z,1.48
2023-03-27T17:55:39.205Z,1.10
2023-03-27T17:58:09.929Z,1.15
2023-03-27T18:00:39.739Z,1.55
2023-03-27T18:03:09.180Z,1.40
2023-03-27T18:05:38.959Z,1.45
2023-03-27T18:08:11.336Z,1.50
2023-03-27T18:10:45.298Z,1.77
2023-03-27T18:13:13.608Z,1.20
2023-03-27T18:15:42.267Z,1.20
2023-03-27T18:18:10.984Z,1.35
2023-03-27T18:20:39.943Z,1.10
2023-03-27T18:23:09.680Z,1.17
2023-03-27T18:25:41.961Z,1.65
2023-03-27T18:28:11.452Z,1.73
2023-03-27T18:30:40.142Z,1.70
2023-03-27T18:33:08.795Z,1.75
2023-03-27T18:35:37.469Z,1.50
2023-03-27T18:38:06.272Z,1.67
2023-03-27T18:40:36.110Z,1.50
2023-03-27T18:43:04.457Z,1.60
2023-03-27T18:45:32.848Z,1.80
2023-03-27T18:48:01.178Z,1.48
2023-03-27T18:50:29.622Z,1.40
2023-03-27T18:52:57.978Z,1.33
2023-03-27T18:55:26.426Z,1.52
2023-03-27T18:57:56.265Z,1.17
2023-03-27T19:00:24.738Z,1.70
2023-03-27T19:02:53.548Z,1.35
2023-03-27T19:05:22.021Z,1.85
2023-03-27T19:07:50.542Z,2.00
2023-03-27T19:10:19.304Z,1.40
2023-03-27T19:12:49.818Z,1.42
2023-03-27T19:15:31.208Z,1.85
2023-03-27T19:17:59.853Z,1.70
2023-03-27T19:20:28.351Z,1.63
2023-03-27T19:22:56.708Z,1.77
2023-03-27T19:25:25.063Z,2.05
2023-03-27T19:27:53.471Z,1.83
2023-03-27T19:30:23.511Z,1.80
2023-03-27T19:32:52.358Z,1.92
2023-03-27T19:35:20.906Z,1.42
2023-03-27T19:37:49.778Z,1.85
2023-03-27T19:40:18.633Z,2.85
2023-03-27T19:42:48.255Z,2.00
2023-03-27T19:45:17.282Z,3.00
2023-03-27T19:47:47.087Z,2.35
2023-03-27T19:50:17.109Z,2.25
2023-03-27T19:52:51.636Z,2.80
2023-03-27T19:55:26.522Z,2.08
2023-03-27T19:57:55.173Z,2.65
2023-03-27T20:00:23.720Z,2.20
2023-03-27T20:02:54.014Z,1.83
2023-03-27T20:05:22.419Z,2.20
2023-03-27T20:07:50.938Z,1.83
2023-03-27T20:10:20.300Z,1.70
2023-03-27T20:12:48.888Z,2.10
2023-03-27T20:15:17.492Z,2.22
2023-03-27T20:17:45.859Z,2.10
2023-03-27T20:20:15.736Z,2.10
2023-03-27T20:22:57.135Z,1.73
2023-03-27T20:25:28.390Z,3.13
2023-03-27T20:27:57.158Z,2.38
2023-03-27T20:30:25.891Z,1.58
2023-03-27T20:32:54.722Z,1.98
2023-03-27T20:35:25.310Z,2.40
2023-03-27T20:37:57.695Z,2.20
2023-03-27T20:40:27.047Z,2.20
2023-03-27T20:43:03.616Z,2.17
2023-03-27T20:45:32.308Z,2.05
2023-03-27T20:48:03.977Z,2.63
2023-03-27T20:50:35.341Z,2.33
2023-03-27T20:53:04.764Z,2.05
2023-03-27T20:55:37.555Z,2.08
2023-03-27T20:58:09.964Z,1.83
2023-03-27T21:00:38.524Z,1.30
2023-03-27T21:03:06.974Z,1.63
2023-03-27T21:05:38.401Z,1.58
2023-03-27T21:08:07.534Z,1.50
2023-03-27T21:10:36.619Z,1.65
2023-03-27T21:13:05.061Z,1.50
2023-03-27T21:15:33.857Z,2.25
2023-03-27T21:18:02.438Z,2.22
2023-03-27T21:20:32.234Z,2.40
2023-03-27T21:23:03.750Z,1.58
2023-03-27T21:25:32.114Z,1.70
2023-03-27T21:28:00.840Z,2.40
2023-03-27T21:30:46.880Z,2.30
2023-03-27T21:33:17.139Z,2.40
2023-03-27T21:35:47.911Z,1.98
2023-03-27T21:38:19.077Z,2.50
2023-03-27T21:40:48.313Z,1.98
2023-03-27T21:43:17.216Z,2.45
2023-03-27T21:45:46.860Z,2.15
2023-03-27T21:48:15.422Z,2.00
2023-03-27T21:50:43.874Z,2.13
2023-03-27T21:53:13.507Z,1.80
2023-03-27T21:55:43.825Z,1.95
2023-03-27T21:58:12.093Z,2.00
2023-03-27T22:00:41.341Z,2.30
2023-03-27T22:03:09.624Z,1.83
2023-03-27T22:05:38.754Z,2.00
2023-03-27T22:08:07.458Z,2.35
2023-03-27T22:10:36.678Z,2.22
2023-03-27T22:13:06.664Z,2.00
2023-03-27T22:15:35.165Z,2.63
2023-03-27T22:18:03.736Z,2.17
2023-03-27T22:20:32.273Z,2.65
2023-03-27T22:23:00.882Z,2.15
2023-03-27T22:25:29.419Z,2.20
2023-03-27T22:27:58.749Z,2.20
2023-03-27T22:30:29.769Z,1.83
2023-03-27T22:32:58.099Z,2.72
2023-03-27T22:35:26.421Z,2.30
2023-03-27T22:37:54.749Z,1.80
2023-03-27T22:40:23.243Z,2.00
2023-03-27T22:42:52.005Z,2.25
2023-03-27T22:45:20.373Z,2.25
2023-03-27T22:47:50.110Z,2.53
2023-03-27T22:50:18.754Z,2.17
2023-03-27T22:52:47.407Z,2.10
2023-03-27T22:55:15.855Z,2.30
2023-03-27T22:57:44.337Z,2.10
2023-03-27T23:00:14.573Z,2.47
2023-03-27T23:02:42.934Z,2.05
2023-03-27T23:05:12.835Z,2.40
2023-03-27T23:07:41.667Z,2.50
2023-03-27T23:10:11.337Z,2.78
2023-03-27T23:12:39.857Z,2.35
2023-03-27T23:15:11.205Z,1.80
2023-03-27T23:17:39.583Z,2.50
2023-03-27T23:20:09.520Z,2.55
2023-03-27T23:22:39.865Z,2.10
2023-03-27T23:25:09.485Z,2.30
2023-03-27T23:27:38.041Z,2.00
2023-03-27T23:30:08.487Z,2.13
2023-03-27T23:32:37.855Z,2.33
2023-03-27T23:35:07.467Z,2.40
2023-03-27T23:37:36.298Z,1.77
2023-03-27T23:40:07.737Z,1.95
2023-03-27T23:42:36.206Z,2.20
2023-03-27T23:45:04.789Z,1.83
2023-03-27T23:47:33.071Z,1.80
2023-03-27T23:50:01.406Z,1.65
2023-03-27T23:52:29.861Z,1.83
2023-03-27T23:54:58.143Z,2.25
2023-03-27T23:57:28.326Z,1.75
2023-03-27T23:59:56.694Z,2.00
